sensor_id;sensor_type;location;lat;lon;timestamp;pressure;altitude;pressure_sealevel;temperature;humidity
73422;BME280;61637;47.760;-122.022;2024-01-15T00:00:00;102607.617;;;-2.8;63.0
73422;BME280;61637;47.760;-122.022;2024-01-15T00:02:00;102607.617;;;-2.8;62.0
73422;BME280;61637;47.760;-122.022;2024-01-15T00:04:00;102607.617;;;-2.8;62.0
73422;BME280;61637;47.760;-122.022;2024-01-15T00:06:00;102607.617;;;-2.8;62.0
73422;BME280;61637;47.760;-122.022;2024-01-15T00:08:00;102607.617;;;-2.8;62.0
73422;BME280;61637;47.760;-122.022;2024-01-15T00:10:00;102607.617;;;-2.9;63.0
73422;BME280;61637;47.760;-122.022;2024-01-15T00:12:01;102641.4809;;;-2.9;64.0
73422;BME280;61637;47.760;-122.022;2024-01-15T00:14:00;102641.4809;;;-2.9;63.0
73422;BME280;61637;47.760;-122.022;2024-01-15T00:16:00;102641.4809;;;-2.9;63.0
73422;BME280;61637;47.760;-122.022;2024-01-15T00:18:00;102641.4809;;;-3.0;63.0
73422;BME280;61637;47.760;-122.022;2024-01-15T00:20:00;102607.617;;;-3.1;61.0
73422;BME280;61637;47.760;-122.022;2024-01-15T00:22:00;102607.617;;;-3.1;61.0
73422;BME280;61637;47.760;-122.022;2024-01-15T00:24:00;102607.617;;;-3.1;63.0
73422;BME280;61637;47.760;-122.022;2024-01-15T00:26:00;102641.4809;;;-3.1;64.0
73422;BME280;61637;47.760;-122.022;2024-01-15T00:28:00;102641.4809;;;-3.1;63.0
73422;BME280;61637;47.760;-122.022;2024-01-15T00:30:00;102641.4809;;;-3.2;63.0
73422;BME280;61637;47.760;-122.022;2024-01-15T00:32:00;102641.4809;;;-3.2;64.0
73422;BME280;61637;47.760;-122.022;2024-01-15T00:34:00;102641.4809;;;-3.2;65.0
73422;BME280;61637;47.760;-122.022;2024-01-15T00:36:00;102641.4809;;;-3.2;64.0
73422;BME280;61637;47.760;-122.022;2024-01-15T00:38:00;102641.4809;;;-3.3;64.0
73422;BME280;61637;47.760;-122.022;2024-01-15T00:40:02;102641.4809;;;-3.3;63.0
73422;BME280;61637;47.760;-122.022;2024-01-15T00:42:00;102641.4809;;;-3.4;67.0
73422;BME280;61637;47.760;-122.022;2024-01-15T00:44:00;102675.34479999999;;;-3.4;67.0
73422;BME280;61637;47.760;-122.022;2024-01-15T00:46:01;102641.4809;;;-3.4;67.0
73422;BME280;61637;47.760;-122.022;2024-01-15T00:48:00;102675.34479999999;;;-3.5;67.0
73422;BME280;61637;47.760;-122.022;2024-01-15T00:50:00;102641.4809;;;-3.6;67.0
73422;BME280;61637;47.760;-122.022;2024-01-15T00:52:00;102675.34479999999;;;-3.6;67.0
73422;BME280;61637;47.760;-122.022;2024-01-15T00:54:00;102641.4809;;;-3.6;67.0
73422;BME280;61637;47.760;-122.022;2024-01-15T00:56:00;102675.34479999999;;;-3.7;67.0
73422;BME280;61637;47.760;-122.022;2024-01-15T00:58:00;102675.34479999999;;;-3.7;68.0
73422;BME280;61637;47.760;-122.022;2024-01-15T01:00:00;102675.34479999999;;;-3.7;68.0
73422;BME280;61637;47.760;-122.022;2024-01-15T01:02:00;102675.34479999999;;;-3.8;68.0
73422;BME280;61637;47.760;-122.022;2024-01-15T01:04:00;102675.34479999999;;;-3.8;68.0
73422;BME280;61637;47.760;-122.022;2024-01-15T01:06:00;102675.34479999999;;;-3.8;68.0
73422;BME280;61637;47.760;-122.022;2024-01-15T01:08:00;102675.34479999999;;;-3.9;69.0
73422;BME280;61637;47.760;-122.022;2024-01-15T01:10:00;102675.34479999999;;;-3.9;69.0
73422;BME280;61637;47.760;-122.022;2024-01-15T01:12:00;102675.34479999999;;;-3.9;69.0
73422;BME280;61637;47.760;-122.022;2024-01-15T01:14:00;102675.34479999999;;;-3.9;69.0
73422;BME280;61637;47.760;-122.022;2024-01-15T01:16:00;102675.34479999999;;;-4.0;67.0
73422;BME280;61637;47.760;-122.022;2024-01-15T01:18:00;102675.34479999999;;;-4.1;69.0
73422;BME280;61637;47.760;-122.022;2024-01-15T01:20:00;102709.20869999999;;;-4.1;67.0
73422;BME280;61637;47.760;-122.022;2024-01-15T01:22:00;102709.20869999999;;;-4.1;68.0
73422;BME280;61637;47.760;-122.022;2024-01-15T01:24:01;102709.20869999999;;;-4.1;69.0
73422;BME280;61637;47.760;-122.022;2024-01-15T01:26:00;102709.20869999999;;;-4.2;69.0
73422;BME280;61637;47.760;-122.022;2024-01-15T01:28:00;102709.20869999999;;;-4.2;70.0
73422;BME280;61637;47.760;-122.022;2024-01-15T01:30:00;102709.20869999999;;;-4.2;71.0
73422;BME280;61637;47.760;-122.022;2024-01-15T01:32:00;102709.20869999999;;;-4.2;69.0
73422;BME280;61637;47.760;-122.022;2024-01-15T01:34:00;102709.20869999999;;;-4.2;69.0
73422;BME280;61637;47.760;-122.022;2024-01-15T01:36:00;102709.20869999999;;;-4.3;69.0
73422;BME280;61637;47.760;-122.022;2024-01-15T01:38:00;102709.20869999999;;;-4.3;69.0
73422;BME280;61637;47.760;-122.022;2024-01-15T01:40:00;102709.20869999999;;;-4.3;69.0
73422;BME280;61637;47.760;-122.022;2024-01-15T01:42:00;102709.20869999999;;;-4.3;69.0
73422;BME280;61637;47.760;-122.022;2024-01-15T01:44:00;102709.20869999999;;;-4.4;69.0
73422;BME280;61637;47.760;-122.022;2024-01-15T01:46:01;102709.20869999999;;;-4.4;69.0
73422;BME280;61637;47.760;-122.022;2024-01-15T01:48:00;102709.20869999999;;;-4.4;69.0
73422;BME280;61637;47.760;-122.022;2024-01-15T01:50:01;102709.20869999999;;;-4.4;70.0
73422;BME280;61637;47.760;-122.022;2024-01-15T01:52:01;102743.0726;;;-4.5;69.0
73422;BME280;61637;47.760;-122.022;2024-01-15T01:54:00;102743.0726;;;-4.5;69.0
73422;BME280;61637;47.760;-122.022;2024-01-15T01:56:00;102743.0726;;;-4.5;71.0
73422;BME280;61637;47.760;-122.022;2024-01-15T01:58:00;102743.0726;;;-4.5;71.0
73422;BME280;61637;47.760;-122.022;2024-01-15T02:00:01;102743.0726;;;-4.6;71.0
73422;BME280;61637;47.760;-122.022;2024-01-15T02:02:00;102743.0726;;;-4.6;70.0
73422;BME280;61637;47.760;-122.022;2024-01-15T02:04:01;102743.0726;;;-4.6;69.0
73422;BME280;61637;47.760;-122.022;2024-01-15T02:06:00;102743.0726;;;-4.6;70.0
73422;BME280;61637;47.760;-122.022;2024-01-15T02:08:00;102743.0726;;;-4.6;71.0
73422;BME280;61637;47.760;-122.022;2024-01-15T02:10:00;102743.0726;;;-4.6;72.0
73422;BME280;61637;47.760;-122.022;2024-01-15T02:12:00;102743.0726;;;-4.6;72.0
73422;BME280;61637;47.760;-122.022;2024-01-15T02:14:00;102743.0726;;;-4.6;72.0
73422;BME280;61637;47.760;-122.022;2024-01-15T02:16:00;102743.0726;;;-4.7;72.0
73422;BME280;61637;47.760;-122.022;2024-01-15T02:18:01;102743.0726;;;-4.7;70.0
73422;BME280;61637;47.760;-122.022;2024-01-15T02:20:01;102743.0726;;;-4.7;70.0
73422;BME280;61637;47.760;-122.022;2024-01-15T02:22:00;102743.0726;;;-4.7;69.0
73422;BME280;61637;47.760;-122.022;2024-01-15T02:24:00;102776.9365;;;-4.7;70.0
73422;BME280;61637;47.760;-122.022;2024-01-15T02:26:00;102743.0726;;;-4.7;70.0
73422;BME280;61637;47.760;-122.022;2024-01-15T02:28:00;102743.0726;;;-4.7;69.0
73422;BME280;61637;47.760;-122.022;2024-01-15T02:30:00;102776.9365;;;-4.7;69.0
73422;BME280;61637;47.760;-122.022;2024-01-15T02:32:04;102776.9365;;;-4.7;69.0
73422;BME280;61637;47.760;-122.022;2024-01-15T02:34:00;102776.9365;;;-4.7;68.0
73422;BME280;61637;47.760;-122.022;2024-01-15T02:36:00;102776.9365;;;-4.8;68.0
73422;BME280;61637;47.760;-122.022;2024-01-15T02:38:00;102776.9365;;;-4.8;68.0
73422;BME280;61637;47.760;-122.022;2024-01-15T02:40:00;102776.9365;;;-4.8;67.0
73422;BME280;61637;47.760;-122.022;2024-01-15T02:42:00;102776.9365;;;-4.8;67.0
73422;BME280;61637;47.760;-122.022;2024-01-15T02:44:00;102810.8004;;;-4.8;65.0
73422;BME280;61637;47.760;-122.022;2024-01-15T02:46:00;102810.8004;;;-4.8;66.0
73422;BME280;61637;47.760;-122.022;2024-01-15T02:48:00;102810.8004;;;-4.8;67.0
73422;BME280;61637;47.760;-122.022;2024-01-15T02:50:00;102810.8004;;;-4.8;69.0
73422;BME280;61637;47.760;-122.022;2024-01-15T02:52:00;102810.8004;;;-4.8;70.0
73422;BME280;61637;47.760;-122.022;2024-01-15T02:54:00;102810.8004;;;-4.8;71.0
73422;BME280;61637;47.760;-122.022;2024-01-15T02:56:00;102810.8004;;;-4.8;70.0
73422;BME280;61637;47.760;-122.022;2024-01-15T02:58:00;102844.6643;;;-4.8;69.0
73422;BME280;61637;47.760;-122.022;2024-01-15T03:00:00;102810.8004;;;-4.8;69.0
73422;BME280;61637;47.760;-122.022;2024-01-15T03:02:00;102844.6643;;;-4.8;68.0
73422;BME280;61637;47.760;-122.022;2024-01-15T03:04:00;102810.8004;;;-4.8;67.0
73422;BME280;61637;47.760;-122.022;2024-01-15T03:06:01;102810.8004;;;-4.9;67.0
73422;BME280;61637;47.760;-122.022;2024-01-15T03:08:00;102810.8004;;;-4.9;67.0
73422;BME280;61637;47.760;-122.022;2024-01-15T03:10:00;102844.6643;;;-4.8;67.0
73422;BME280;61637;47.760;-122.022;2024-01-15T03:12:00;102810.8004;;;-4.9;67.0
73422;BME280;61637;47.760;-122.022;2024-01-15T03:14:00;102844.6643;;;-4.9;66.0
73422;BME280;61637;47.760;-122.022;2024-01-15T03:16:01;102810.8004;;;-4.9;66.0
73422;BME280;61637;47.760;-122.022;2024-01-15T03:18:00;102844.6643;;;-4.9;66.0
73422;BME280;61637;47.760;-122.022;2024-01-15T03:20:00;102844.6643;;;-5.0;66.0
73422;BME280;61637;47.760;-122.022;2024-01-15T03:22:00;102844.6643;;;-5.0;66.0
73422;BME280;61637;47.760;-122.022;2024-01-15T03:24:00;102844.6643;;;-5.0;66.0
73422;BME280;61637;47.760;-122.022;2024-01-15T03:26:00;102844.6643;;;-5.0;66.0
73422;BME280;61637;47.760;-122.022;2024-01-15T03:28:00;102844.6643;;;-5.1;66.0
73422;BME280;61637;47.760;-122.022;2024-01-15T03:30:00;102844.6643;;;-5.1;66.0
73422;BME280;61637;47.760;-122.022;2024-01-15T03:32:00;102844.6643;;;-5.1;66.0
73422;BME280;61637;47.760;-122.022;2024-01-15T03:34:00;102844.6643;;;-5.1;66.0
73422;BME280;61637;47.760;-122.022;2024-01-15T03:36:00;102844.6643;;;-5.1;66.0
73422;BME280;61637;47.760;-122.022;2024-01-15T03:38:00;102878.52819999999;;;-5.1;67.0
73422;BME280;61637;47.760;-122.022;2024-01-15T03:40:00;102844.6643;;;-5.1;67.0
73422;BME280;61637;47.760;-122.022;2024-01-15T03:42:00;102878.52819999999;;;-5.2;66.0
73422;BME280;61637;47.760;-122.022;2024-01-15T03:44:00;102844.6643;;;-5.2;66.0
73422;BME280;61637;47.760;-122.022;2024-01-15T03:46:00;102844.6643;;;-5.2;67.0
73422;BME280;61637;47.760;-122.022;2024-01-15T03:48:00;102844.6643;;;-5.2;66.0
73422;BME280;61637;47.760;-122.022;2024-01-15T03:50:00;102878.52819999999;;;-5.2;66.0
73422;BME280;61637;47.760;-122.022;2024-01-15T03:52:00;102878.52819999999;;;-5.2;66.0
73422;BME280;61637;47.760;-122.022;2024-01-15T03:54:00;102844.6643;;;-5.2;66.0
73422;BME280;61637;47.760;-122.022;2024-01-15T03:56:00;102878.52819999999;;;-5.2;66.0
73422;BME280;61637;47.760;-122.022;2024-01-15T03:58:00;102878.52819999999;;;-5.3;66.0
73422;BME280;61637;47.760;-122.022;2024-01-15T04:00:00;102878.52819999999;;;-5.3;66.0
73422;BME280;61637;47.760;-122.022;2024-01-15T04:02:00;102878.52819999999;;;-5.3;66.0
73422;BME280;61637;47.760;-122.022;2024-01-15T04:04:00;102878.52819999999;;;-5.3;67.0
73422;BME280;61637;47.760;-122.022;2024-01-15T04:06:00;102878.52819999999;;;-5.3;67.0
73422;BME280;61637;47.760;-122.022;2024-01-15T04:08:00;102878.52819999999;;;-5.4;66.0
73422;BME280;61637;47.760;-122.022;2024-01-15T04:10:00;102878.52819999999;;;-5.4;66.0
73422;BME280;61637;47.760;-122.022;2024-01-15T04:12:00;102878.52819999999;;;-5.4;66.0
73422;BME280;61637;47.760;-122.022;2024-01-15T04:14:00;102878.52819999999;;;-5.4;66.0
73422;BME280;61637;47.760;-122.022;2024-01-15T04:16:00;102878.52819999999;;;-5.4;66.0
73422;BME280;61637;47.760;-122.022;2024-01-15T04:18:02;102878.52819999999;;;-5.4;65.0
73422;BME280;61637;47.760;-122.022;2024-01-15T04:20:00;102878.52819999999;;;-5.4;66.0
73422;BME280;61637;47.760;-122.022;2024-01-15T04:22:00;102878.52819999999;;;-5.5;66.0
73422;BME280;61637;47.760;-122.022;2024-01-15T04:24:00;102878.52819999999;;;-5.4;66.0
73422;BME280;61637;47.760;-122.022;2024-01-15T04:26:00;102912.3921;;;-5.5;66.0
73422;BME280;61637;47.760;-122.022;2024-01-15T04:28:00;102878.52819999999;;;-5.5;66.0
73422;BME280;61637;47.760;-122.022;2024-01-15T04:30:00;102878.52819999999;;;-5.5;66.0
73422;BME280;61637;47.760;-122.022;2024-01-15T04:32:01;102878.52819999999;;;-5.6;66.0
73422;BME280;61637;47.760;-122.022;2024-01-15T04:34:00;102878.52819999999;;;-5.6;66.0
73422;BME280;61637;47.760;-122.022;2024-01-15T04:36:01;102912.3921;;;-5.6;67.0
73422;BME280;61637;47.760;-122.022;2024-01-15T04:38:00;102878.52819999999;;;-5.6;67.0
73422;BME280;61637;47.760;-122.022;2024-01-15T04:40:00;102878.52819999999;;;-5.6;67.0
73422;BME280;61637;47.760;-122.022;2024-01-15T04:42:00;102878.52819999999;;;-5.6;67.0
73422;BME280;61637;47.760;-122.022;2024-01-15T04:44:01;102878.52819999999;;;-5.6;66.0
73422;BME280;61637;47.760;-122.022;2024-01-15T04:46:00;102878.52819999999;;;-5.7;66.0
73422;BME280;61637;47.760;-122.022;2024-01-15T04:48:00;102878.52819999999;;;-5.7;66.0
73422;BME280;61637;47.760;-122.022;2024-01-15T04:50:00;102878.52819999999;;;-5.7;67.0
73422;BME280;61637;47.760;-122.022;2024-01-15T04:52:00;102878.52819999999;;;-5.7;67.0
73422;BME280;61637;47.760;-122.022;2024-01-15T04:54:01;102878.52819999999;;;-5.7;67.0
73422;BME280;61637;47.760;-122.022;2024-01-15T04:56:00;102878.52819999999;;;-5.8;67.0
73422;BME280;61637;47.760;-122.022;2024-01-15T04:58:00;102878.52819999999;;;-5.8;68.0
73422;BME280;61637;47.760;-122.022;2024-01-15T05:00:00;102878.52819999999;;;-5.8;68.0
73422;BME280;61637;47.760;-122.022;2024-01-15T05:02:00;102878.52819999999;;;-5.8;68.0
73422;BME280;61637;47.760;-122.022;2024-01-15T05:04:00;102878.52819999999;;;-5.8;69.0
73422;BME280;61637;47.760;-122.022;2024-01-15T05:06:00;102878.52819999999;;;-5.8;69.0
73422;BME280;61637;47.760;-122.022;2024-01-15T05:08:00;102878.52819999999;;;-5.9;70.0
73422;BME280;61637;47.760;-122.022;2024-01-15T05:10:00;102878.52819999999;;;-5.9;70.0
73422;BME280;61637;47.760;-122.022;2024-01-15T05:12:00;102878.52819999999;;;-5.9;69.0
73422;BME280;61637;47.760;-122.022;2024-01-15T05:14:00;102878.52819999999;;;-5.9;70.0
73422;BME280;61637;47.760;-122.022;2024-01-15T05:16:00;102878.52819999999;;;-5.9;70.0
73422;BME280;61637;47.760;-122.022;2024-01-15T05:18:00;102878.52819999999;;;-6.0;70.0
73422;BME280;61637;47.760;-122.022;2024-01-15T05:20:00;102878.52819999999;;;-5.9;70.0
73422;BME280;61637;47.760;-122.022;2024-01-15T05:22:01;102878.52819999999;;;-6.0;70.0
73422;BME280;61637;47.760;-122.022;2024-01-15T05:24:00;102878.52819999999;;;-6.0;70.0
73422;BME280;61637;47.760;-122.022;2024-01-15T05:26:00;102878.52819999999;;;-6.1;70.0
73422;BME280;61637;47.760;-122.022;2024-01-15T05:28:00;102878.52819999999;;;-6.1;70.0
73422;BME280;61637;47.760;-122.022;2024-01-15T05:30:00;102878.52819999999;;;-6.1;70.0
73422;BME280;61637;47.760;-122.022;2024-01-15T05:32:00;102878.52819999999;;;-6.2;71.0
73422;BME280;61637;47.760;-122.022;2024-01-15T05:34:01;102844.6643;;;-6.2;70.0
73422;BME280;61637;47.760;-122.022;2024-01-15T05:36:00;102878.52819999999;;;-6.2;69.0
73422;BME280;61637;47.760;-122.022;2024-01-15T05:38:00;102878.52819999999;;;-6.2;70.0
73422;BME280;61637;47.760;-122.022;2024-01-15T05:40:00;102878.52819999999;;;-6.2;70.0
73422;BME280;61637;47.760;-122.022;2024-01-15T05:42:00;102878.52819999999;;;-6.3;70.0
73422;BME280;61637;47.760;-122.022;2024-01-15T05:44:00;102878.52819999999;;;-6.3;71.0
73422;BME280;61637;47.760;-122.022;2024-01-15T05:46:00;102878.52819999999;;;-6.3;71.0
73422;BME280;61637;47.760;-122.022;2024-01-15T05:48:00;102878.52819999999;;;-6.3;71.0
73422;BME280;61637;47.760;-122.022;2024-01-15T05:50:01;102878.52819999999;;;-6.3;73.0
73422;BME280;61637;47.760;-122.022;2024-01-15T05:52:00;102878.52819999999;;;-6.3;71.0
73422;BME280;61637;47.760;-122.022;2024-01-15T05:54:00;102878.52819999999;;;-6.3;72.0
73422;BME280;61637;47.760;-122.022;2024-01-15T05:56:00;102878.52819999999;;;-6.4;71.0
73422;BME280;61637;47.760;-122.022;2024-01-15T05:58:00;102878.52819999999;;;-6.4;71.0
73422;BME280;61637;47.760;-122.022;2024-01-15T06:00:00;102878.52819999999;;;-6.4;72.0
73422;BME280;61637;47.760;-122.022;2024-01-15T06:02:00;102878.52819999999;;;-6.4;73.0
73422;BME280;61637;47.760;-122.022;2024-01-15T06:04:00;102878.52819999999;;;-6.5;72.0
73422;BME280;61637;47.760;-122.022;2024-01-15T06:06:00;102878.52819999999;;;-6.5;72.0
73422;BME280;61637;47.760;-122.022;2024-01-15T06:08:00;102878.52819999999;;;-6.5;72.0
73422;BME280;61637;47.760;-122.022;2024-01-15T06:10:00;102878.52819999999;;;-6.6;72.0
73422;BME280;61637;47.760;-122.022;2024-01-15T06:12:00;102878.52819999999;;;-6.6;73.0
73422;BME280;61637;47.760;-122.022;2024-01-15T06:14:00;102878.52819999999;;;-6.6;73.0
73422;BME280;61637;47.760;-122.022;2024-01-15T06:16:00;102878.52819999999;;;-6.6;72.0
73422;BME280;61637;47.760;-122.022;2024-01-15T06:18:00;102878.52819999999;;;-6.6;73.0
73422;BME280;61637;47.760;-122.022;2024-01-15T06:20:00;102878.52819999999;;;-6.6;73.0
73422;BME280;61637;47.760;-122.022;2024-01-15T06:22:00;102878.52819999999;;;-6.7;72.0
73422;BME280;61637;47.760;-122.022;2024-01-15T06:24:00;102878.52819999999;;;-6.7;73.0
73422;BME280;61637;47.760;-122.022;2024-01-15T06:26:00;102878.52819999999;;;-6.7;74.0
73422;BME280;61637;47.760;-122.022;2024-01-15T06:28:00;102878.52819999999;;;-6.7;73.0
73422;BME280;61637;47.760;-122.022;2024-01-15T06:30:00;102912.3921;;;-6.7;73.0
73422;BME280;61637;47.760;-122.022;2024-01-15T06:32:00;102912.3921;;;-6.7;72.0
73422;BME280;61637;47.760;-122.022;2024-01-15T06:34:01;102912.3921;;;-6.7;72.0
73422;BME280;61637;47.760;-122.022;2024-01-15T06:36:00;102912.3921;;;-6.7;73.0
73422;BME280;61637;47.760;-122.022;2024-01-15T06:38:00;102912.3921;;;-6.7;73.0
73422;BME280;61637;47.760;-122.022;2024-01-15T06:40:00;102912.3921;;;-6.7;72.0
73422;BME280;61637;47.760;-122.022;2024-01-15T06:42:00;102912.3921;;;-6.7;73.0
73422;BME280;61637;47.760;-122.022;2024-01-15T06:44:00;102912.3921;;;-6.7;73.0
73422;BME280;61637;47.760;-122.022;2024-01-15T06:46:00;102912.3921;;;-6.8;74.0
73422;BME280;61637;47.760;-122.022;2024-01-15T06:48:00;102912.3921;;;-6.8;75.0
73422;BME280;61637;47.760;-122.022;2024-01-15T06:50:00;102912.3921;;;-6.8;76.0
73422;BME280;61637;47.760;-122.022;2024-01-15T06:52:00;102912.3921;;;-6.8;76.0
73422;BME280;61637;47.760;-122.022;2024-01-15T06:54:00;102912.3921;;;-6.8;76.0
73422;BME280;61637;47.760;-122.022;2024-01-15T06:56:00;102912.3921;;;-6.8;76.0
73422;BME280;61637;47.760;-122.022;2024-01-15T06:58:00;102912.3921;;;-6.9;76.0
73422;BME280;61637;47.760;-122.022;2024-01-15T07:00:00;102912.3921;;;-6.9;76.0
73422;BME280;61637;47.760;-122.022;2024-01-15T07:02:00;102912.3921;;;-6.9;77.0
73422;BME280;61637;47.760;-122.022;2024-01-15T07:04:00;102946.256;;;-6.9;76.0
73422;BME280;61637;47.760;-122.022;2024-01-15T07:06:00;102946.256;;;-6.9;76.0
73422;BME280;61637;47.760;-122.022;2024-01-15T07:08:00;102946.256;;;-6.9;77.0
73422;BME280;61637;47.760;-122.022;2024-01-15T07:10:00;102946.256;;;-6.9;76.0
73422;BME280;61637;47.760;-122.022;2024-01-15T07:12:00;102946.256;;;-7.1;77.0
73422;BME280;61637;47.760;-122.022;2024-01-15T07:14:00;102946.256;;;-7.1;77.0
73422;BME280;61637;47.760;-122.022;2024-01-15T07:16:00;102946.256;;;-7.1;77.0
73422;BME280;61637;47.760;-122.022;2024-01-15T07:18:00;102946.256;;;-7.1;78.0
73422;BME280;61637;47.760;-122.022;2024-01-15T07:20:00;102946.256;;;-7.1;78.0
73422;BME280;61637;47.760;-122.022;2024-01-15T07:22:00;102946.256;;;-7.1;78.0
73422;BME280;61637;47.760;-122.022;2024-01-15T07:24:00;102980.11989999999;;;-7.1;78.0
73422;BME280;61637;47.760;-122.022;2024-01-15T07:26:00;102946.256;;;-7.1;78.0
73422;BME280;61637;47.760;-122.022;2024-01-15T07:28:00;102980.11989999999;;;-7.1;78.0
73422;BME280;61637;47.760;-122.022;2024-01-15T07:30:00;102980.11989999999;;;-7.2;78.0
73422;BME280;61637;47.760;-122.022;2024-01-15T07:32:00;102980.11989999999;;;-7.2;77.0
73422;BME280;61637;47.760;-122.022;2024-01-15T07:34:00;102980.11989999999;;;-7.2;77.0
73422;BME280;61637;47.760;-122.022;2024-01-15T07:36:00;102980.11989999999;;;-7.2;77.0
73422;BME280;61637;47.760;-122.022;2024-01-15T07:38:00;102946.256;;;-7.2;77.0
73422;BME280;61637;47.760;-122.022;2024-01-15T07:40:00;102980.11989999999;;;-7.2;77.0
73422;BME280;61637;47.760;-122.022;2024-01-15T07:42:00;102980.11989999999;;;-7.2;77.0
73422;BME280;61637;47.760;-122.022;2024-01-15T07:44:00;102980.11989999999;;;-7.3;77.0
73422;BME280;61637;47.760;-122.022;2024-01-15T07:46:00;102980.11989999999;;;-7.3;79.0
73422;BME280;61637;47.760;-122.022;2024-01-15T07:48:00;102980.11989999999;;;-7.3;79.0
73422;BME280;61637;47.760;-122.022;2024-01-15T07:50:00;102980.11989999999;;;-7.3;79.0
73422;BME280;61637;47.760;-122.022;2024-01-15T07:52:00;102980.11989999999;;;-7.2;78.0
73422;BME280;61637;47.760;-122.022;2024-01-15T07:54:00;102980.11989999999;;;-7.2;78.0
73422;BME280;61637;47.760;-122.022;2024-01-15T07:56:00;102980.11989999999;;;-7.2;79.0
73422;BME280;61637;47.760;-122.022;2024-01-15T07:58:01;102980.11989999999;;;-7.2;78.0
73422;BME280;61637;47.760;-122.022;2024-01-15T08:00:00;102980.11989999999;;;-7.2;78.0
73422;BME280;61637;47.760;-122.022;2024-01-15T08:02:00;102980.11989999999;;;-7.2;79.0
73422;BME280;61637;47.760;-122.022;2024-01-15T08:04:00;102980.11989999999;;;-7.2;79.0
73422;BME280;61637;47.760;-122.022;2024-01-15T08:06:00;102980.11989999999;;;-7.2;79.0
73422;BME280;61637;47.760;-122.022;2024-01-15T08:08:00;102980.11989999999;;;-7.2;78.0
73422;BME280;61637;47.760;-122.022;2024-01-15T08:10:00;102946.256;;;-7.2;77.0
73422;BME280;61637;47.760;-122.022;2024-01-15T08:12:00;102946.256;;;-7.3;78.0
73422;BME280;61637;47.760;-122.022;2024-01-15T08:14:00;102946.256;;;-7.3;78.0
73422;BME280;61637;47.760;-122.022;2024-01-15T08:16:00;102946.256;;;-7.4;79.0
73422;BME280;61637;47.760;-122.022;2024-01-15T08:18:00;102946.256;;;-7.4;80.0
73422;BME280;61637;47.760;-122.022;2024-01-15T08:20:00;102946.256;;;-7.3;80.0
73422;BME280;61637;47.760;-122.022;2024-01-15T08:22:00;102946.256;;;-7.3;79.0
73422;BME280;61637;47.760;-122.022;2024-01-15T08:24:00;102946.256;;;-7.3;79.0
73422;BME280;61637;47.760;-122.022;2024-01-15T08:26:00;102946.256;;;-7.3;79.0
73422;BME280;61637;47.760;-122.022;2024-01-15T08:28:00;102980.11989999999;;;-7.3;78.0
73422;BME280;61637;47.760;-122.022;2024-01-15T08:30:00;102946.256;;;-7.3;78.0
73422;BME280;61637;47.760;-122.022;2024-01-15T08:32:00;102980.11989999999;;;-7.2;78.0
73422;BME280;61637;47.760;-122.022;2024-01-15T08:34:00;102946.256;;;-7.2;78.0
73422;BME280;61637;47.760;-122.022;2024-01-15T08:36:00;102946.256;;;-7.2;80.0
73422;BME280;61637;47.760;-122.022;2024-01-15T08:38:00;102946.256;;;-7.1;80.0
73422;BME280;61637;47.760;-122.022;2024-01-15T08:40:00;102980.11989999999;;;-7.1;80.0
73422;BME280;61637;47.760;-122.022;2024-01-15T08:42:00;102980.11989999999;;;-7.1;80.0
73422;BME280;61637;47.760;-122.022;2024-01-15T08:44:00;102980.11989999999;;;-7.2;80.0
73422;BME280;61637;47.760;-122.022;2024-01-15T08:46:01;102946.256;;;-7.1;79.0
73422;BME280;61637;47.760;-122.022;2024-01-15T08:48:00;102946.256;;;-7.1;79.0
73422;BME280;61637;47.760;-122.022;2024-01-15T08:50:00;102946.256;;;-7.1;80.0
73422;BME280;61637;47.760;-122.022;2024-01-15T08:52:00;102980.11989999999;;;-7.1;80.0
73422;BME280;61637;47.760;-122.022;2024-01-15T08:54:00;102946.256;;;-7.2;81.0
73422;BME280;61637;47.760;-122.022;2024-01-15T08:56:00;102946.256;;;-7.1;81.0
73422;BME280;61637;47.760;-122.022;2024-01-15T08:58:00;102980.11989999999;;;-7.2;81.0
73422;BME280;61637;47.760;-122.022;2024-01-15T09:00:00;102980.11989999999;;;-7.1;81.0
73422;BME280;61637;47.760;-122.022;2024-01-15T09:02:00;102980.11989999999;;;-7.1;81.0
73422;BME280;61637;47.760;-122.022;2024-01-15T09:04:00;102980.11989999999;;;-7.2;81.0
73422;BME280;61637;47.760;-122.022;2024-01-15T09:06:01;102980.11989999999;;;-7.2;81.0
73422;BME280;61637;47.760;-122.022;2024-01-15T09:08:00;102980.11989999999;;;-7.2;80.0
73422;BME280;61637;47.760;-122.022;2024-01-15T09:10:00;102980.11989999999;;;-7.2;80.0
73422;BME280;61637;47.760;-122.022;2024-01-15T09:12:00;102980.11989999999;;;-7.3;79.0
73422;BME280;61637;47.760;-122.022;2024-01-15T09:14:00;102980.11989999999;;;-7.3;79.0
73422;BME280;61637;47.760;-122.022;2024-01-15T09:16:00;102980.11989999999;;;-7.4;79.0
73422;BME280;61637;47.760;-122.022;2024-01-15T09:18:00;103013.9838;;;-7.4;80.0
73422;BME280;61637;47.760;-122.022;2024-01-15T09:20:00;103013.9838;;;-7.5;81.0
73422;BME280;61637;47.760;-122.022;2024-01-15T09:22:00;103013.9838;;;-7.4;81.0
73422;BME280;61637;47.760;-122.022;2024-01-15T09:24:00;103047.8477;;;-7.4;81.0
73422;BME280;61637;47.760;-122.022;2024-01-15T09:26:00;103013.9838;;;-7.4;81.0
73422;BME280;61637;47.760;-122.022;2024-01-15T09:28:00;103013.9838;;;-7.5;81.0
73422;BME280;61637;47.760;-122.022;2024-01-15T09:30:00;103013.9838;;;-7.5;82.0
73422;BME280;61637;47.760;-122.022;2024-01-15T09:32:00;103013.9838;;;-7.4;82.0
73422;BME280;61637;47.760;-122.022;2024-01-15T09:34:00;103013.9838;;;-7.5;82.0
73422;BME280;61637;47.760;-122.022;2024-01-15T09:36:01;103013.9838;;;-7.5;82.0
73422;BME280;61637;47.760;-122.022;2024-01-15T09:38:00;103013.9838;;;-7.5;82.0